sensor_id;sensor_type;location;lat;lon;timestamp;temperature;humidity
33023;DHT22;19390;51.460;5.710;2022-08-21T00:00:38;12.10;99.90
33023;DHT22;19390;51.460;5.710;2022-08-21T00:03:07;12.00;99.90
33023;DHT22;19390;51.460;5.710;2022-08-21T00:05:37;12.10;99.90
33023;DHT22;19390;51.460;5.710;2022-08-21T00:08:03;12.00;99.90
33023;DHT22;19390;51.460;5.710;2022-08-21T00:10:29;11.90;99.90
33023;DHT22;19390;51.460;5.710;2022-08-21T00:12:55;11.90;99.90
33023;DHT22;19390;51.460;5.710;2022-08-21T00:15:24;11.90;99.90
33023;DHT22;19390;51.460;5.710;2022-08-21T00:17:52;11.90;99.90
33023;DHT22;19390;51.460;5.710;2022-08-21T00:20:19;11.90;99.90
33023;DHT22;19390;51.460;5.710;2022-08-21T00:22:45;11.90;99.90
33023;DHT22;19390;51.460;5.710;2022-08-21T00:25:11;11.90;99.90
33023;DHT22;19390;51.460;5.710;2022-08-21T00:27:37;11.90;99.90
33023;DHT22;19390;51.460;5.710;2022-08-21T00:30:05;11.80;99.90
33023;DHT22;19390;51.460;5.710;2022-08-21T00:32:32;11.80;99.90
33023;DHT22;19390;51.460;5.710;2022-08-21T00:34:57;11.80;99.90
33023;DHT22;19390;51.460;5.710;2022-08-21T00:37:23;11.80;99.90
33023;DHT22;19390;51.460;5.710;2022-08-21T00:39:49;11.70;99.90
33023;DHT22;19390;51.460;5.710;2022-08-21T00:42:16;11.70;99.90
33023;DHT22;19390;51.460;5.710;2022-08-21T00:44:44;11.70;99.90
33023;DHT22;19390;51.460;5.710;2022-08-21T00:47:10;11.70;99.90
33023;DHT22;19390;51.460;5.710;2022-08-21T00:49:36;11.70;99.90
33023;DHT22;19390;51.460;5.710;2022-08-21T00:52:02;11.70;99.90
33023;DHT22;19390;51.460;5.710;2022-08-21T00:54:30;11.60;99.90
33023;DHT22;19390;51.460;5.710;2022-08-21T00:57:00;11.60;99.90
33023;DHT22;19390;51.460;5.710;2022-08-21T00:59:28;11.60;99.90
33023;DHT22;19390;51.460;5.710;2022-08-21T01:01:56;11.50;99.90
33023;DHT22;19390;51.460;5.710;2022-08-21T01:04:22;11.60;99.90
33023;DHT22;19390;51.460;5.710;2022-08-21T01:06:48;11.50;99.90
33023;DHT22;19390;51.460;5.710;2022-08-21T01:09:14;11.60;99.90
33023;DHT22;19390;51.460;5.710;2022-08-21T01:11:41;11.50;99.90
33023;DHT22;19390;51.460;5.710;2022-08-21T01:14:08;11.50;99.90
33023;DHT22;19390;51.460;5.710;2022-08-21T01:16:39;11.50;99.90
33023;DHT22;19390;51.460;5.710;2022-08-21T01:19:06;11.40;99.90
33023;DHT22;19390;51.460;5.710;2022-08-21T01:21:32;11.30;99.90
33023;DHT22;19390;51.460;5.710;2022-08-21T01:23:58;11.30;99.90
33023;DHT22;19390;51.460;5.710;2022-08-21T01:26:28;11.30;99.90
33023;DHT22;19390;51.460;5.710;2022-08-21T01:28:58;11.40;99.90
33023;DHT22;19390;51.460;5.710;2022-08-21T01:31:27;11.40;99.90
33023;DHT22;19390;51.460;5.710;2022-08-21T01:33:54;11.40;99.90
33023;DHT22;19390;51.460;5.710;2022-08-21T01:36:21;11.40;99.90
33023;DHT22;19390;51.460;5.710;2022-08-21T01:38:47;11.40;99.90
33023;DHT22;19390;51.460;5.710;2022-08-21T01:41:14;11.30;99.90
33023;DHT22;19390;51.460;5.710;2022-08-21T01:43:40;11.30;99.90
33023;DHT22;19390;51.460;5.710;2022-08-21T01:46:06;11.40;99.90
33023;DHT22;19390;51.460;5.710;2022-08-21T01:48:32;11.30;99.90
33023;DHT22;19390;51.460;5.710;2022-08-21T01:50:58;11.20;99.90
33023;DHT22;19390;51.460;5.710;2022-08-21T01:53:24;11.30;99.90
33023;DHT22;19390;51.460;5.710;2022-08-21T01:55:49;11.40;99.90
33023;DHT22;19390;51.460;5.710;2022-08-21T01:58:15;11.40;99.90
33023;DHT22;19390;51.460;5.710;2022-08-21T02:00:41;11.30;99.90
33023;DHT22;19390;51.460;5.710;2022-08-21T02:03:07;11.30;99.90
33023;DHT22;19390;51.460;5.710;2022-08-21T02:05:32;11.30;99.90
33023;DHT22;19390;51.460;5.710;2022-08-21T02:07:58;11.30;99.90
33023;DHT22;19390;51.460;5.710;2022-08-21T02:10:28;11.20;99.90
33023;DHT22;19390;51.460;5.710;2022-08-21T02:12:55;11.20;99.90
33023;DHT22;19390;51.460;5.710;2022-08-21T02:15:22;11.20;99.90
33023;DHT22;19390;51.460;5.710;2022-08-21T02:17:51;11.10;99.90
33023;DHT22;19390;51.460;5.710;2022-08-21T02:20:24;11.10;99.90
33023;DHT22;19390;51.460;5.710;2022-08-21T02:22:50;11.10;99.90
33023;DHT22;19390;51.460;5.710;2022-08-21T02:25:17;10.90;99.90
33023;DHT22;19390;51.460;5.710;2022-08-21T02:27:44;10.90;99.90
33023;DHT22;19390;51.460;5.710;2022-08-21T02:30:14;10.90;99.90
33023;DHT22;19390;51.460;5.710;2022-08-21T02:32:41;11.00;99.90
33023;DHT22;19390;51.460;5.710;2022-08-21T02:35:09;11.00;99.90
33023;DHT22;19390;51.460;5.710;2022-08-21T02:37:43;11.00;99.90
33023;DHT22;19390;51.460;5.710;2022-08-21T02:40:09;10.90;99.90
33023;DHT22;19390;51.460;5.710;2022-08-21T02:42:36;10.90;99.90
33023;DHT22;19390;51.460;5.710;2022-08-21T02:45:03;10.90;99.90
33023;DHT22;19390;51.460;5.710;2022-08-21T02:47:28;10.70;99.90
33023;DHT22;19390;51.460;5.710;2022-08-21T02:49:54;10.70;99.90
33023;DHT22;19390;51.460;5.710;2022-08-21T02:52:19;10.60;99.90
33023;DHT22;19390;51.460;5.710;2022-08-21T02:54:47;10.80;99.90
33023;DHT22;19390;51.460;5.710;2022-08-21T02:57:13;10.70;99.90
33023;DHT22;19390;51.460;5.710;2022-08-21T02:59:38;10.60;99.90
33023;DHT22;19390;51.460;5.710;2022-08-21T03:02:05;10.60;99.90
33023;DHT22;19390;51.460;5.710;2022-08-21T03:04:31;10.60;99.90
33023;DHT22;19390;51.460;5.710;2022-08-21T03:06:57;10.50;99.90
33023;DHT22;19390;51.460;5.710;2022-08-21T03:09:23;10.40;99.90
33023;DHT22;19390;51.460;5.710;2022-08-21T03:11:50;10.40;99.90
33023;DHT22;19390;51.460;5.710;2022-08-21T03:14:17;10.40;99.90
33023;DHT22;19390;51.460;5.710;2022-08-21T03:16:43;10.40;99.90
33023;DHT22;19390;51.460;5.710;2022-08-21T03:19:08;10.40;99.90
33023;DHT22;19390;51.460;5.710;2022-08-21T03:21:34;10.50;99.90
33023;DHT22;19390;51.460;5.710;2022-08-21T03:24:00;10.50;99.90
33023;DHT22;19390;51.460;5.710;2022-08-21T03:26:26;10.40;99.90
33023;DHT22;19390;51.460;5.710;2022-08-21T03:28:51;10.50;99.90
33023;DHT22;19390;51.460;5.710;2022-08-21T03:31:17;10.40;99.90
33023;DHT22;19390;51.460;5.710;2022-08-21T03:33:43;10.50;99.90
33023;DHT22;19390;51.460;5.710;2022-08-21T03:36:10;10.50;99.90
33023;DHT22;19390;51.460;5.710;2022-08-21T03:38:37;10.40;99.90
33023;DHT22;19390;51.460;5.710;2022-08-21T03:41:04;10.60;99.90
33023;DHT22;19390;51.460;5.710;2022-08-21T03:43:31;10.80;99.90
33023;DHT22;19390;51.460;5.710;2022-08-21T03:45:57;10.80;99.90
33023;DHT22;19390;51.460;5.710;2022-08-21T03:48:22;10.70;99.90
33023;DHT22;19390;51.460;5.710;2022-08-21T03:50:48;10.80;99.90
33023;DHT22;19390;51.460;5.710;2022-08-21T03:53:16;11.00;99.90
33023;DHT22;19390;51.460;5.710;2022-08-21T03:55:42;11.00;99.90
33023;DHT22;19390;51.460;5.710;2022-08-21T03:58:08;11.00;99.90
33023;DHT22;19390;51.460;5.710;2022-08-21T04:00:33;11.10;99.90
33023;DHT22;19390;51.460;5.710;2022-08-21T04:02:59;11.10;99.90
33023;DHT22;19390;51.460;5.710;2022-08-21T04:05:25;11.10;99.90
33023;DHT22;19390;51.460;5.710;2022-08-21T04:07:58;11.30;99.90
33023;DHT22;19390;51.460;5.710;2022-08-21T04:10:25;11.20;99.90
33023;DHT22;19390;51.460;5.710;2022-08-21T04:12:53;11.10;99.90
33023;DHT22;19390;51.460;5.710;2022-08-21T04:15:18;11.10;99.90
33023;DHT22;19390;51.460;5.710;2022-08-21T04:17:45;11.20;99.90
33023;DHT22;19390;51.460;5.710;2022-08-21T04:20:11;11.30;99.90
33023;DHT22;19390;51.460;5.710;2022-08-21T04:22:38;11.20;99.90
33023;DHT22;19390;51.460;5.710;2022-08-21T04:25:04;11.20;99.90
33023;DHT22;19390;51.460;5.710;2022-08-21T04:27:30;11.10;99.90
33023;DHT22;19390;51.460;5.710;2022-08-21T04:29:55;11.10;99.90
33023;DHT22;19390;51.460;5.710;2022-08-21T04:32:23;11.10;99.90
33023;DHT22;19390;51.460;5.710;2022-08-21T04:34:48;11.10;99.90
33023;DHT22;19390;51.460;5.710;2022-08-21T04:37:14;11.10;99.90
33023;DHT22;19390;51.460;5.710;2022-08-21T04:39:41;11.10;99.90
33023;DHT22;19390;51.460;5.710;2022-08-21T04:42:07;11.20;99.90
33023;DHT22;19390;51.460;5.710;2022-08-21T04:44:33;11.50;99.90
33023;DHT22;19390;51.460;5.710;2022-08-21T04:46:58;11.70;99.90
33023;DHT22;19390;51.460;5.710;2022-08-21T04:49:24;11.70;99.90
33023;DHT22;19390;51.460;5.710;2022-08-21T04:51:50;11.90;99.90
33023;DHT22;19390;51.460;5.710;2022-08-21T04:54:20;12.00;99.90
33023;DHT22;19390;51.460;5.710;2022-08-21T04:56:51;12.10;99.90
33023;DHT22;19390;51.460;5.710;2022-08-21T04:59:21;12.00;99.90
33023;DHT22;19390;51.460;5.710;2022-08-21T05:01:48;12.10;99.90
33023;DHT22;19390;51.460;5.710;2022-08-21T05:04:18;12.20;99.90
33023;DHT22;19390;51.460;5.710;2022-08-21T05:06:46;12.20;99.90
33023;DHT22;19390;51.460;5.710;2022-08-21T05:09:16;12.20;99.90
33023;DHT22;19390;51.460;5.710;2022-08-21T05:11:43;12.30;99.90
33023;DHT22;19390;51.460;5.710;2022-08-21T05:14:10;12.20;99.90
33023;DHT22;19390;51.460;5.710;2022-08-21T05:16:36;12.30;99.90
33023;DHT22;19390;51.460;5.710;2022-08-21T05:19:06;12.40;99.90
33023;DHT22;19390;51.460;5.710;2022-08-21T05:21:33;12.40;99.90
33023;DHT22;19390;51.460;5.710;2022-08-21T05:23:59;12.40;99.90
33023;DHT22;19390;51.460;5.710;2022-08-21T05:26:25;12.50;99.90
33023;DHT22;19390;51.460;5.710;2022-08-21T05:28:50;12.70;99.90
33023;DHT22;19390;51.460;5.710;2022-08-21T05:31:17;14.50;99.90
33023;DHT22;19390;51.460;5.710;2022-08-21T05:33:43;15.60;99.90
33023;DHT22;19390;51.460;5.710;2022-08-21T05:36:08;14.50;99.90
33023;DHT22;19390;51.460;5.710;2022-08-21T05:38:34;14.40;99.90
33023;DHT22;19390;51.460;5.710;2022-08-21T05:41:00;17.00;99.90
33023;DHT22;19390;51.460;5.710;2022-08-21T05:43:25;19.20;99.90
33023;DHT22;19390;51.460;5.710;2022-08-21T05:45:51;20.00;99.90
33023;DHT22;19390;51.460;5.710;2022-08-21T05:48:22;21.50;99.90
33023;DHT22;19390;51.460;5.710;2022-08-21T05:50:49;21.10;99.90
33023;DHT22;19390;51.460;5.710;2022-08-21T05:53:16;22.10;99.90
33023;DHT22;19390;51.460;5.710;2022-08-21T05:55:43;21.70;99.90
33023;DHT22;19390;51.460;5.710;2022-08-21T05:58:08;20.80;99.90
33023;DHT22;19390;51.460;5.710;2022-08-21T06:00:34;21.10;99.90
33023;DHT22;19390;51.460;5.710;2022-08-21T06:03:00;22.20;99.90
33023;DHT22;19390;51.460;5.710;2022-08-21T06:05:26;23.30;99.90
33023;DHT22;19390;51.460;5.710;2022-08-21T06:07:52;24.40;99.90
33023;DHT22;19390;51.460;5.710;2022-08-21T06:10:18;24.40;99.90
33023;DHT22;19390;51.460;5.710;2022-08-21T06:12:43;24.60;99.90
33023;DHT22;19390;51.460;5.710;2022-08-21T06:15:09;25.10;99.90
33023;DHT22;19390;51.460;5.710;2022-08-21T06:17:35;23.30;99.90
33023;DHT22;19390;51.460;5.710;2022-08-21T06:20:01;23.20;99.90
33023;DHT22;19390;51.460;5.710;2022-08-21T06:22:26;23.30;99.90
33023;DHT22;19390;51.460;5.710;2022-08-21T06:24:52;24.20;99.90
33023;DHT22;19390;51.460;5.710;2022-08-21T06:27:18;23.90;99.90
33023;DHT22;19390;51.460;5.710;2022-08-21T06:29:43;24.60;99.90
33023;DHT22;19390;51.460;5.710;2022-08-21T06:32:13;24.90;99.90
33023;DHT22;19390;51.460;5.710;2022-08-21T06:34:40;24.80;99.90
33023;DHT22;19390;51.460;5.710;2022-08-21T06:37:06;24.80;99.90
33023;DHT22;19390;51.460;5.710;2022-08-21T06:39:32;24.50;99.90
33023;DHT22;19390;51.460;5.710;2022-08-21T06:41:58;24.40;99.90
33023;DHT22;19390;51.460;5.710;2022-08-21T06:44:25;25.40;99.90
33023;DHT22;19390;51.460;5.710;2022-08-21T06:46:50;24.50;99.90
33023;DHT22;19390;51.460;5.710;2022-08-21T06:49:16;24.30;99.90
33023;DHT22;19390;51.460;5.710;2022-08-21T06:51:41;26.50;99.90
33023;DHT22;19390;51.460;5.710;2022-08-21T06:54:07;26.20;99.90
33023;DHT22;19390;51.460;5.710;2022-08-21T06:56:34;25.50;99.90
33023;DHT22;19390;51.460;5.710;2022-08-21T06:59:02;25.20;99.90
33023;DHT22;19390;51.460;5.710;2022-08-21T07:01:27;26.20;99.90
33023;DHT22;19390;51.460;5.710;2022-08-21T07:03:53;26.10;99.90
33023;DHT22;19390;51.460;5.710;2022-08-21T07:06:19;25.90;99.90
33023;DHT22;19390;51.460;5.710;2022-08-21T07:08:44;24.50;99.90
33023;DHT22;19390;51.460;5.710;2022-08-21T07:11:18;24.70;99.90
33023;DHT22;19390;51.460;5.710;2022-08-21T07:13:43;25.20;99.90
33023;DHT22;19390;51.460;5.710;2022-08-21T07:16:09;25.60;99.90
33023;DHT22;19390;51.460;5.710;2022-08-21T07:18:35;25.90;99.90
33023;DHT22;19390;51.460;5.710;2022-08-21T07:21:02;25.90;99.90
33023;DHT22;19390;51.460;5.710;2022-08-21T07:23:32;27.60;99.90
33023;DHT22;19390;51.460;5.710;2022-08-21T07:25:58;26.80;99.90
33023;DHT22;19390;51.460;5.710;2022-08-21T07:28:28;26.90;99.90
33023;DHT22;19390;51.460;5.710;2022-08-21T07:30:56;27.90;99.90
33023;DHT22;19390;51.460;5.710;2022-08-21T07:33:23;27.10;99.90
33023;DHT22;19390;51.460;5.710;2022-08-21T07:35:48;27.80;99.90
33023;DHT22;19390;51.460;5.710;2022-08-21T07:38:14;27.70;99.90
33023;DHT22;19390;51.460;5.710;2022-08-21T07:40:39;29.20;99.90
33023;DHT22;19390;51.460;5.710;2022-08-21T07:43:05;28.00;99.90
33023;DHT22;19390;51.460;5.710;2022-08-21T07:45:31;26.40;99.90
33023;DHT22;19390;51.460;5.710;2022-08-21T07:47:56;25.90;99.90
33023;DHT22;19390;51.460;5.710;2022-08-21T07:50:22;24.00;99.90
33023;DHT22;19390;51.460;5.710;2022-08-21T07:52:48;23.40;99.90
33023;DHT22;19390;51.460;5.710;2022-08-21T07:55:18;22.80;99.90
33023;DHT22;19390;51.460;5.710;2022-08-21T07:57:44;22.30;99.90
33023;DHT22;19390;51.460;5.710;2022-08-21T08:00:17;21.70;99.90
33023;DHT22;19390;51.460;5.710;2022-08-21T08:02:46;24.80;99.90
33023;DHT22;19390;51.460;5.710;2022-08-21T08:05:15;28.10;99.90
33023;DHT22;19390;51.460;5.710;2022-08-21T08:07:41;29.20;99.90
33023;DHT22;19390;51.460;5.710;2022-08-21T08:10:09;29.30;99.90
33023;DHT22;19390;51.460;5.710;2022-08-21T08:12:35;28.60;99.90
33023;DHT22;19390;51.460;5.710;2022-08-21T08:15:02;30.50;99.90
33023;DHT22;19390;51.460;5.710;2022-08-21T08:17:28;28.80;99.90
33023;DHT22;19390;51.460;5.710;2022-08-21T08:19:54;27.10;99.90
33023;DHT22;19390;51.460;5.710;2022-08-21T08:22:22;25.40;99.90
33023;DHT22;19390;51.460;5.710;2022-08-21T08:24:52;26.40;99.90
33023;DHT22;19390;51.460;5.710;2022-08-21T08:27:18;24.60;99.90
33023;DHT22;19390;51.460;5.710;2022-08-21T08:29:44;26.30;99.90
33023;DHT22;19390;51.460;5.710;2022-08-21T08:32:10;28.10;99.90
33023;DHT22;19390;51.460;5.710;2022-08-21T08:34:37;27.20;99.90
33023;DHT22;19390;51.460;5.710;2022-08-21T08:37:04;26.20;99.90
33023;DHT22;19390;51.460;5.710;2022-08-21T08:39:30;26.10;99.90
33023;DHT22;19390;51.460;5.710;2022-08-21T08:42:11;29.20;99.90
33023;DHT22;19390;51.460;5.710;2022-08-21T08:44:38;31.00;99.90
33023;DHT22;19390;51.460;5.710;2022-08-21T08:47:04;32.30;99.90
33023;DHT22;19390;51.460;5.710;2022-08-21T08:49:46;31.70;99.90
33023;DHT22;19390;51.460;5.710;2022-08-21T08:52:26;30.90;99.90
33023;DHT22;19390;51.460;5.710;2022-08-21T08:55:23;31.50;99.90
33023;DHT22;19390;51.460;5.710;2022-08-21T08:57:48;31.60;99.90
33023;DHT22;19390;51.460;5.710;2022-08-21T09:00:18;32.70;99.90
33023;DHT22;19390;51.460;5.710;2022-08-21T09:02:45;31.80;99.90
33023;DHT22;19390;51.460;5.710;2022-08-21T09:05:22;32.60;99.90
33023;DHT22;19390;51.460;5.710;2022-08-21T09:08:09;26.90;99.90
33023;DHT22;19390;51.460;5.710;2022-08-21T09:16:13;28.40;99.90
33023;DHT22;19390;51.460;5.710;2022-08-21T09:22:02;28.80;99.90
33023;DHT22;19390;51.460;5.710;2022-08-21T09:25:03;28.10;99.90
33023;DHT22;19390;51.460;5.710;2022-08-21T09:27:33;29.20;99.90
33023;DHT22;19390;51.460;5.710;2022-08-21T09:29:59;28.40;99.90
33023;DHT22;19390;51.460;5.710;2022-08-21T09:32:31;27.40;99.90
33023;DHT22;19390;51.460;5.710;2022-08-21T09:35:08;28.40;99.90
33023;DHT22;19390;51.460;5.710;2022-08-21T09:37:47;27.60;99.90
33023;DHT22;19390;51.460;5.710;2022-08-21T09:45:34;28.30;99.90
33023;DHT22;19390;51.460;5.710;2022-08-21T09:50:35;28.60;99.90
33023;DHT22;19390;51.460;5.710;2022-08-21T09:53:00;27.80;99.90
33023;DHT22;19390;51.460;5.710;2022-08-21T09:55:38;27.50;99.90
33023;DHT22;19390;51.460;5.710;2022-08-21T09:58:31;25.80;99.90
33023;DHT22;19390;51.460;5.710;2022-08-21T10:00:59;27.20;99.90
33023;DHT22;19390;51.460;5.710;2022-08-21T10:03:26;30.70;99.90
33023;DHT22;19390;51.460;5.710;2022-08-21T10:05:58;30.90;99.90
33023;DHT22;19390;51.460;5.710;2022-08-21T10:08:27;27.20;99.90
33023;DHT22;19390;51.460;5.710;2022-08-21T10:11:05;26.00;99.90
33023;DHT22;19390;51.460;5.710;2022-08-21T10:13:56;26.50;99.90
33023;DHT22;19390;51.460;5.710;2022-08-21T10:19:35;29.10;99.90
33023;DHT22;19390;51.460;5.710;2022-08-21T10:22:27;28.70;99.90
33023;DHT22;19390;51.460;5.710;2022-08-21T10:25:40;30.10;99.90
33023;DHT22;19390;51.460;5.710;2022-08-21T10:30:44;29.40;99.90
33023;DHT22;19390;51.460;5.710;2022-08-21T10:36:17;28.60;99.90
33023;DHT22;19390;51.460;5.710;2022-08-21T10:41:38;26.20;99.90
33023;DHT22;19390;51.460;5.710;2022-08-21T10:44:34;27.00;99.90
33023;DHT22;19390;51.460;5.710;2022-08-21T10:47:18;28.70;99.90
33023;DHT22;19390;51.460;5.710;2022-08-21T10:49:51;27.70;99.90
33023;DHT22;19390;51.460;5.710;2022-08-21T10:52:39;28.20;99.90
33023;DHT22;19390;51.460;5.710;2022-08-21T10:55:36;28.70;99.90
33023;DHT22;19390;51.460;5.710;2022-08-21T10:58:29;28.20;99.90
33023;DHT22;19390;51.460;5.710;2022-08-21T11:01:09;26.50;99.90
33023;DHT22;19390;51.460;5.710;2022-08-21T11:03:52;27.20;99.90
33023;DHT22;19390;51.460;5.710;2022-08-21T11:06:25;28.00;99.90
33023;DHT22;19390;51.460;5.710;2022-08-21T11:08:58;27.60;99.90
33023;DHT22;19390;51.460;5.710;2022-08-21T11:11:57;27.90;99.90
33023;DHT22;19390;51.460;5.710;2022-08-21T11:14:21;27.10;99.90
33023;DHT22;19390;51.460;5.710;2022-08-21T11:16:54;26.50;99.90
33023;DHT22;19390;51.460;5.710;2022-08-21T11:19:33;26.50;99.90
33023;DHT22;19390;51.460;5.710;2022-08-21T11:24:52;26.40;99.90
33023;DHT22;19390;51.460;5.710;2022-08-21T11:27:33;26.70;99.90
33023;DHT22;19390;51.460;5.710;2022-08-21T11:30:02;28.10;99.90
33023;DHT22;19390;51.460;5.710;2022-08-21T11:51:04;27.80;99.90
33023;DHT22;19390;51.460;5.710;2022-08-21T11:53:48;27.70;99.90
33023;DHT22;19390;51.460;5.710;2022-08-21T11:56:23;29.30;99.90
33023;DHT22;19390;51.460;5.710;2022-08-21T11:58:56;27.40;99.90
33023;DHT22;19390;51.460;5.710;2022-08-21T12:01:32;28.20;99.90
33023;DHT22;19390;51.460;5.710;2022-08-21T12:04:02;30.50;99.90
33023;DHT22;19390;51.460;5.710;2022-08-21T12:06:36;30.10;99.90
33023;DHT22;19390;51.460;5.710;2022-08-21T12:12:12;28.80;99.90
33023;DHT22;19390;51.460;5.710;2022-08-21T12:14:43;30.30;99.90
33023;DHT22;19390;51.460;5.710;2022-08-21T12:17:20;30.70;99.90
33023;DHT22;19390;51.460;5.710;2022-08-21T12:20:16;29.40;99.90
33023;DHT22;19390;51.460;5.710;2022-08-21T12:22:55;28.40;99.90
33023;DHT22;19390;51.460;5.710;2022-08-21T12:25:59;30.70;99.90
33023;DHT22;19390;51.460;5.710;2022-08-21T12:28:26;29.20;99.90
33023;DHT22;19390;51.460;5.710;2022-08-21T12:30:53;29.30;99.90
33023;DHT22;19390;51.460;5.710;2022-08-21T12:35:45;27.80;99.90
33023;DHT22;19390;51.460;5.710;2022-08-21T12:40:56;26.70;99.90
33023;DHT22;19390;51.460;5.710;2022-08-21T12:43:38;26.00;99.90
33023;DHT22;19390;51.460;5.710;2022-08-21T12:46:04;25.70;99.90
33023;DHT22;19390;51.460;5.710;2022-08-21T12:48:41;25.80;99.90
33023;DHT22;19390;51.460;5.710;2022-08-21T12:51:17;27.20;99.90
33023;DHT22;19390;51.460;5.710;2022-08-21T12:53:49;28.70;99.90
33023;DHT22;19390;51.460;5.710;2022-08-21T12:56:18;29.60;99.90
33023;DHT22;19390;51.460;5.710;2022-08-21T12:58:47;30.80;99.90
33023;DHT22;19390;51.460;5.710;2022-08-21T13:01:27;31.30;99.90
33023;DHT22;19390;51.460;5.710;2022-08-21T13:03:57;31.30;99.90
33023;DHT22;19390;51.460;5.710;2022-08-21T13:06:23;29.80;99.90
33023;DHT22;19390;51.460;5.710;2022-08-21T13:08:57;29.30;99.90
33023;DHT22;19390;51.460;5.710;2022-08-21T13:11:24;29.20;99.90
33023;DHT22;19390;51.460;5.710;2022-08-21T13:13:51;29.30;99.90
33023;DHT22;19390;51.460;5.710;2022-08-21T13:16:22;27.00;99.90
33023;DHT22;19390;51.460;5.710;2022-08-21T13:19:18;27.60;99.90
33023;DHT22;19390;51.460;5.710;2022-08-21T13:21:44;28.40;99.90
33023;DHT22;19390;51.460;5.710;2022-08-21T13:26:41;29.00;99.90
33023;DHT22;19390;51.460;5.710;2022-08-21T13:29:14;28.60;99.90
33023;DHT22;19390;51.460;5.710;2022-08-21T13:31:42;30.70;99.90
33023;DHT22;19390;51.460;5.710;2022-08-21T13:34:11;32.00;99.90
33023;DHT22;19390;51.460;5.710;2022-08-21T13:36:40;31.70;99.90
33023;DHT22;19390;51.460;5.710;2022-08-21T13:39:16;30.90;99.90
33023;DHT22;19390;51.460;5.710;2022-08-21T13:41:45;29.50;99.90
33023;DHT22;19390;51.460;5.710;2022-08-21T13:44:17;28.10;99.90
33023;DHT22;19390;51.460;5.710;2022-08-21T13:46:43;27.60;99.90
33023;DHT22;19390;51.460;5.710;2022-08-21T13:49:10;28.20;99.90
33023;DHT22;19390;51.460;5.710;2022-08-21T13:51:38;29.00;99.90
33023;DHT22;19390;51.460;5.710;2022-08-21T13:54:24;30.00;99.90
33023;DHT22;19390;51.460;5.710;2022-08-21T13:56:51;30.00;99.90
33023;DHT22;19390;51.460;5.710;2022-08-21T13:59:31;30.20;99.90
33023;DHT22;19390;51.460;5.710;2022-08-21T14:02:19;30.00;99.90
33023;DHT22;19390;51.460;5.710;2022-08-21T14:04:56;29.00;99.90
33023;DHT22;19390;51.460;5.710;2022-08-21T14:10:01;27.50;99.90
33023;DHT22;19390;51.460;5.710;2022-08-21T14:12:35;26.80;99.90
33023;DHT22;19390;51.460;5.710;2022-08-21T14:15:04;26.50;99.90
33023;DHT22;19390;51.460;5.710;2022-08-21T14:17:36;26.80;99.90
33023;DHT22;19390;51.460;5.710;2022-08-21T14:20:03;26.70;99.90
33023;DHT22;19390;51.460;5.710;2022-08-21T14:27:34;26.40;99.90
33023;DHT22;19390;51.460;5.710;2022-08-21T14:30:16;26.60;99.90
33023;DHT22;19390;51.460;5.710;2022-08-21T14:32:42;26.70;99.90
33023;DHT22;19390;51.460;5.710;2022-08-21T14:35:08;26.60;99.90
33023;DHT22;19390;51.460;5.710;2022-08-21T14:37:34;26.20;99.90
33023;DHT22;19390;51.460;5.710;2022-08-21T14:40:00;26.20;99.90
33023;DHT22;19390;51.460;5.710;2022-08-21T14:42:26;25.90;99.90
33023;DHT22;19390;51.460;5.710;2022-08-21T14:44:55;26.00;99.90
33023;DHT22;19390;51.460;5.710;2022-08-21T14:47:21;26.50;99.90
33023;DHT22;19390;51.460;5.710;2022-08-21T14:49:47;26.90;99.90
33023;DHT22;19390;51.460;5.710;2022-08-21T14:52:13;26.90;99.90
33023;DHT22;19390;51.460;5.710;2022-08-21T14:54:38;27.00;99.90
33023;DHT22;19390;51.460;5.710;2022-08-21T14:57:10;26.90;99.90
33023;DHT22;19390;51.460;5.710;2022-08-21T14:59:37;27.40;99.90
33023;DHT22;19390;51.460;5.710;2022-08-21T15:02:03;27.50;99.90
33023;DHT22;19390;51.460;5.710;2022-08-21T15:04:30;26.70;99.90
33023;DHT22;19390;51.460;5.710;2022-08-21T15:06:55;26.40;99.90
33023;DHT22;19390;51.460;5.710;2022-08-21T15:09:21;26.20;99.90
33023;DHT22;19390;51.460;5.710;2022-08-21T15:11:47;26.30;99.90
33023;DHT22;19390;51.460;5.710;2022-08-21T15:14:22;26.20;99.90
33023;DHT22;19390;51.460;5.710;2022-08-21T15:16:50;25.90;99.90
33023;DHT22;19390;51.460;5.710;2022-08-21T15:19:16;26.10;99.90
33023;DHT22;19390;51.460;5.710;2022-08-21T15:21:41;25.90;99.90
33023;DHT22;19390;51.460;5.710;2022-08-21T15:24:07;26.30;99.90
33023;DHT22;19390;51.460;5.710;2022-08-21T15:26:34;26.10;99.90
33023;DHT22;19390;51.460;5.710;2022-08-21T15:29:00;25.90;99.90
33023;DHT22;19390;51.460;5.710;2022-08-21T15:31:27;26.20;99.90
33023;DHT22;19390;51.460;5.710;2022-08-21T15:33:53;25.80;99.90
33023;DHT22;19390;51.460;5.710;2022-08-21T15:36:18;25.80;99.90
33023;DHT22;19390;51.460;5.710;2022-08-21T15:38:44;25.90;99.90
33023;DHT22;19390;51.460;5.710;2022-08-21T15:41:10;25.70;99.90
33023;DHT22;19390;51.460;5.710;2022-08-21T15:43:43;26.00;99.90
33023;DHT22;19390;51.460;5.710;2022-08-21T15:46:12;26.00;99.90
33023;DHT22;19390;51.460;5.710;2022-08-21T15:48:37;25.80;99.90
33023;DHT22;19390;51.460;5.710;2022-08-21T15:51:03;25.60;99.90
33023;DHT22;19390;51.460;5.710;2022-08-21T15:53:29;25.70;99.90
33023;DHT22;19390;51.460;5.710;2022-08-21T15:55:57;25.70;99.90
33023;DHT22;19390;51.460;5.710;2022-08-21T15:58:25;25.30;99.90
33023;DHT22;19390;51.460;5.710;2022-08-21T16:00:50;25.30;99.90
33023;DHT22;19390;51.460;5.710;2022-08-21T16:03:18;25.30;99.90
33023;DHT22;19390;51.460;5.710;2022-08-21T16:05:47;25.10;99.90
33023;DHT22;19390;51.460;5.710;2022-08-21T16:08:14;25.10;99.90
33023;DHT22;19390;51.460;5.710;2022-08-21T16:10:40;25.10;99.90
33023;DHT22;19390;51.460;5.710;2022-08-21T16:13:19;25.00;99.90
33023;DHT22;19390;51.460;5.710;2022-08-21T16:15:47;25.00;99.90
33023;DHT22;19390;51.460;5.710;2022-08-21T16:18:13;24.70;99.90
33023;DHT22;19390;51.460;5.710;2022-08-21T16:20:39;24.90;99.90
33023;DHT22;19390;51.460;5.710;2022-08-21T16:23:04;24.80;99.90
33023;DHT22;19390;51.460;5.710;2022-08-21T16:25:30;24.90;99.90
33023;DHT22;19390;51.460;5.710;2022-08-21T16:28:00;24.70;99.90
33023;DHT22;19390;51.460;5.710;2022-08-21T16:30:28;24.30;99.90
33023;DHT22;19390;51.460;5.710;2022-08-21T16:32:54;24.30;99.90
33023;DHT22;19390;51.460;5.710;2022-08-21T16:35:20;24.40;99.90
33023;DHT22;19390;51.460;5.710;2022-08-21T16:37:47;24.30;99.90
33023;DHT22;19390;51.460;5.710;2022-08-21T16:40:13;24.40;99.90
33023;DHT22;19390;51.460;5.710;2022-08-21T16:42:40;24.50;99.90
33023;DHT22;19390;51.460;5.710;2022-08-21T16:45:10;24.70;99.90
33023;DHT22;19390;51.460;5.710;2022-08-21T16:47:36;24.80;99.90
33023;DHT22;19390;51.460;5.710;2022-08-21T16:50:02;24.50;99.90